Time;durP1;ratioP1;P1;durP2;ratioP2;P2;SDS_P1;SDS_P2;PMS_P1;PMS_P2;Temp;Humidity;BMP_temperature;BMP_pressure;BME280_temperature;BME280_humidity;BME280_pressure;Samples;Min_cycle;Max_cycle;Signal;HPM_P1;HPM_P2
2022/01/07 00:01:19;;;;;;;9.60;6.70;;;;;;;2.45;70.94;99669.14;1772939;80;20953;-74
2022/01/07 00:03:52;;;;;;;11.97;7.60;;;;;;;2.43;70.92;99672.30;1758746;80;22253;-74
2022/01/07 00:06:19;;;;;;;12.10;7.28;;;;;;;2.42;70.96;99677.14;1756168;80;21526;-73
2022/01/07 00:08:46;;;;;;;12.13;7.33;;;;;;;2.40;70.96;99673.77;1766359;80;20947;-74
2022/01/07 00:11:14;;;;;;;11.80;7.12;;;;;;;2.39;70.94;99676.83;1776413;80;20987;-73
2022/01/07 00:13:40;;;;;;;11.78;7.28;;;;;;;2.36;70.96;99677.48;1777617;80;21564;-74
2022/01/07 00:16:07;;;;;;;9.00;6.35;;;;;;;2.33;70.99;99669.84;1757146;81;21764;-74
2022/01/07 00:18:34;;;;;;;12.05;7.30;;;;;;;2.30;71.02;99674.75;1740955;81;20976;-72
2022/01/07 00:21:05;;;;;;;9.98;7.20;;;;;;;2.28;71.08;99683.12;1755616;81;21398;-73
2022/01/07 00:23:31;;;;;;;9.43;7.03;;;;;;;2.26;71.08;99692.33;1740451;81;21008;-73
2022/01/07 00:25:57;;;;;;;10.90;7.30;;;;;;;2.25;71.16;99688.52;1755930;80;20988;-73
2022/01/07 00:28:24;;;;;;;10.95;6.78;;;;;;;2.22;71.19;99680.84;1753555;80;22212;-73
2022/01/07 00:30:52;;;;;;;12.13;7.30;;;;;;;2.20;71.21;99682.23;1785337;80;21038;-73
2022/01/07 00:33:18;;;;;;;9.73;6.85;;;;;;;2.19;71.25;99692.75;1756474;80;20961;-73
2022/01/07 00:35:45;;;;;;;9.65;6.55;;;;;;;2.16;71.30;99691.16;1759410;80;20953;-72
2022/01/07 00:38:11;;;;;;;11.08;6.83;;;;;;;2.13;71.35;99687.44;1746245;80;21493;-73
2022/01/07 00:40:39;;;;;;;8.90;5.80;;;;;;;2.10;71.38;99701.08;1764127;80;21792;-73
2022/01/07 00:43:05;;;;;;;10.98;6.37;;;;;;;2.09;71.47;99702.00;1755347;81;20996;-73
2022/01/07 00:45:32;;;;;;;8.95;5.65;;;;;;;2.09;71.52;99703.30;1780304;80;21011;-73
2022/01/07 00:47:58;;;;;;;9.40;5.87;;;;;;;2.11;71.55;99716.62;1791285;80;21073;-73
2022/01/07 00:50:27;;;;;;;10.10;5.58;;;;;;;2.14;71.49;99722.98;1756019;81;22356;-72
2022/01/07 00:52:54;;;;;;;9.55;5.78;;;;;;;2.19;71.44;99716.20;1756984;80;21819;-73
2022/01/07 00:55:20;;;;;;;10.23;5.75;;;;;;;2.21;71.14;99712.58;1755884;80;21488;-73
2022/01/07 00:57:48;;;;;;;7.28;5.30;;;;;;;2.22;70.97;99710.38;1748127;80;20949;-72
2022/01/07 01:00:18;;;;;;;10.95;5.40;;;;;;;2.21;70.79;99722.16;1772828;78;21016;-73
2022/01/07 01:02:44;;;;;;;7.92;4.92;;;;;;;2.18;70.57;99728.39;1757912;80;20949;-73
2022/01/07 01:05:11;;;;;;;8.48;4.87;;;;;;;2.14;70.25;99724.28;1771111;80;22432;-73
2022/01/07 01:07:39;;;;;;;8.73;5.45;;;;;;;2.12;70.17;99735.23;1755152;81;21565;-72
2022/01/07 01:10:07;;;;;;;9.40;5.55;;;;;;;2.09;70.08;99726.28;1774483;80;21007;-73
2022/01/07 01:12:38;;;;;;;7.10;5.30;;;;;;;2.09;69.96;99731.96;1779718;80;21015;-72
2022/01/07 01:15:08;;;;;;;7.85;5.03;;;;;;;2.08;69.93;99728.98;1783759;80;21555;-73
2022/01/07 01:17:34;;;;;;;7.35;4.97;;;;;;;2.02;69.92;99731.45;1734257;80;21820;-73
2022/01/07 01:20:03;;;;;;;7.85;5.08;;;;;;;1.98;69.89;99728.18;1756290;80;21107;-73
2022/01/07 01:22:31;;;;;;;7.67;4.78;;;;;;;1.97;69.81;99738.22;1733794;81;21033;-73
2022/01/07 01:24:58;;;;;;;7.25;5.15;;;;;;;1.94;69.80;99731.89;1782827;80;21003;-73
2022/01/07 01:27:24;;;;;;;7.33;4.80;;;;;;;1.92;69.77;99731.56;1757184;81;20984;-73
2022/01/07 01:29:50;;;;;;;5.75;4.35;;;;;;;1.89;69.66;99735.19;1732536;80;22401;-72
2022/01/07 01:32:17;;;;;;;9.45;4.95;;;;;;;1.88;69.67;99743.92;1763967;80;20964;-72
2022/01/07 01:34:43;;;;;;;6.72;4.42;;;;;;;1.86;69.66;99741.03;1748635;81;21096;-72
2022/01/07 01:37:10;;;;;;;7.22;4.47;;;;;;;1.82;69.56;99737.73;1759277;80;21004;-73
2022/01/07 01:39:38;;;;;;;8.70;4.78;;;;;;;1.81;69.60;99745.62;1780580;80;20998;-74
2022/01/07 01:42:05;;;;;;;8.43;4.60;;;;;;;1.76;69.49;99747.66;1747532;81;21814;-72
2022/01/07 01:44:32;;;;;;;8.00;4.30;;;;;;;1.72;69.52;99747.80;1743359;81;21005;-72
2022/01/07 01:46:59;;;;;;;7.37;4.75;;;;;;;1.70;69.53;99747.05;1771206;80;21050;-72
2022/01/07 01:49:25;;;;;;;7.53;4.45;;;;;;;1.69;69.51;99747.13;1780195;80;21338;-72
2022/01/07 01:51:52;;;;;;;6.70;4.42;;;;;;;1.69;69.50;99749.27;1745802;80;21057;-72
2022/01/07 01:54:19;;;;;;;5.40;4.00;;;;;;;1.67;69.48;99743.31;1719597;81;22233;-72
2022/01/07 01:56:45;;;;;;;6.17;4.22;;;;;;;1.63;69.38;99744.38;1764757;80;21003;-72
2022/01/07 01:59:12;;;;;;;5.83;3.87;;;;;;;1.60;69.33;99747.15;1760815;80;21030;-72
2022/01/07 02:01:40;;;;;;;5.92;3.85;;;;;;;1.59;69.28;99739.42;1760037;80;21552;-72
2022/01/07 02:04:07;;;;;;;4.87;3.62;;;;;;;1.55;69.08;99746.56;1742973;81;21075;-72
2022/01/07 02:06:36;;;;;;;6.30;3.90;;;;;;;1.52;69.04;99746.70;1737558;81;21887;-72
2022/01/07 02:09:05;;;;;;;5.20;3.60;;;;;;;1.51;68.99;99746.33;1737426;81;21432;-72
2022/01/07 02:11:34;;;;;;;6.40;4.00;;;;;;;1.49;68.99;99745.57;1711821;82;20983;-72
2022/01/07 02:14:00;;;;;;;5.53;3.70;;;;;;;1.47;68.95;99750.02;1748522;81;21034;-71
2022/01/07 02:16:27;;;;;;;5.83;3.70;;;;;;;1.47;68.77;99748.72;1757264;80;21395;-73
2022/01/07 02:18:53;;;;;;;6.67;3.75;;;;;;;1.45;68.79;99746.67;1771758;80;22781;-73
2022/01/07 02:21:21;;;;;;;5.05;3.27;;;;;;;1.43;68.67;99749.32;1763734;80;21001;-73
2022/01/07 02:23:47;;;;;;;6.22;4.08;;;;;;;1.42;68.66;99750.70;1782003;80;21022;-72
2022/01/07 02:26:14;;;;;;;4.90;3.75;;;;;;;1.41;68.64;99746.42;1782906;80;20979;-72
2022/01/07 02:28:41;;;;;;;5.35;4.17;;;;;;;1.40;68.66;99744.75;1717898;81;21406;-73
2022/01/07 02:31:07;;;;;;;6.45;4.30;;;;;;;1.38;68.70;99753.09;1750605;80;21708;-72
2022/01/07 02:33:34;;;;;;;6.83;4.20;;;;;;;1.36;68.73;99757.55;1726566;83;21047;-72
2022/01/07 02:36:10;;;;;;;5.50;3.77;;;;;;;1.33;68.83;99761.59;1752466;80;20996;-72
2022/01/07 02:38:38;;;;;;;6.83;3.98;;;;;;;1.32;68.87;99764.65;1762020;80;21011;-72
2022/01/07 02:41:04;;;;;;;6.22;3.90;;;;;;;1.31;68.94;99768.64;1762338;79;20951;-73
2022/01/07 02:43:31;;;;;;;7.17;3.98;;;;;;;1.31;69.01;99774.68;1763808;81;22202;-73
2022/01/07 02:45:57;;;;;;;5.40;3.62;;;;;;;1.30;69.01;99769.09;1751189;81;21411;-72
2022/01/07 02:48:23;;;;;;;6.95;4.03;;;;;;;1.27;69.08;99773.16;1776066;80;21019;-73
2022/01/07 02:50:50;;;;;;;5.65;3.95;;;;;;;1.26;69.12;99777.16;1750245;80;21071;-72
2022/01/07 02:53:16;;;;;;;5.20;3.67;;;;;;;1.27;69.17;99779.67;1762412;80;21011;-72
2022/01/07 02:55:42;;;;;;;5.12;3.37;;;;;;;1.28;69.23;99779.20;1771642;80;22172;-72
2022/01/07 02:58:09;;;;;;;6.65;4.12;;;;;;;1.27;69.22;99791.38;1787744;80;21420;-71
2022/01/07 03:00:36;;;;;;;6.15;4.00;;;;;;;1.28;69.28;99796.12;1779654;80;21431;-73
2022/01/07 03:03:04;;;;;;;5.40;3.77;;;;;;;1.27;69.29;99797.04;1786735;80;21386;-72
2022/01/07 03:05:30;;;;;;;7.28;3.87;;;;;;;1.26;69.32;99800.10;1768924;80;21010;-72
2022/01/07 03:07:57;;;;;;;6.92;3.92;;;;;;;1.26;69.35;99805.77;1779129;80;21743;-72
2022/01/07 03:10:27;;;;;;;4.85;3.75;;;;;;;1.25;69.41;99810.55;1764919;80;21497;-73
2022/01/07 03:12:54;;;;;;;6.75;3.90;;;;;;;1.26;69.42;99817.02;1741279;82;21065;-72
2022/01/07 03:15:21;;;;;;;5.83;4.22;;;;;;;1.26;69.37;99817.47;1778505;79;21043;-73
2022/01/07 03:17:48;;;;;;;5.83;3.75;;;;;;;1.25;69.38;99817.06;1768587;80;20989;-72
2022/01/07 03:20:17;;;;;;;5.08;3.37;;;;;;;1.25;69.43;99819.66;1786421;79;21822;-73
2022/01/07 03:22:45;;;;;;;4.83;3.90;;;;;;;1.23;69.45;99827.55;1749543;80;20999;-71
2022/01/07 03:25:12;;;;;;;6.95;3.98;;;;;;;1.23;69.42;99832.75;1763958;81;20994;-72
2022/01/07 03:27:38;;;;;;;5.05;3.62;;;;;;;1.20;69.44;99829.47;1745400;80;20964;-72
2022/01/07 03:30:08;;;;;;;6.50;4.30;;;;;;;1.19;69.39;99838.20;1763828;80;20950;-71
2022/01/07 03:32:34;;;;;;;5.08;3.83;;;;;;;1.15;69.47;99842.23;1744194;80;21838;-72
2022/01/07 03:35:00;;;;;;;4.17;3.45;;;;;;;1.14;69.50;99853.55;1743176;80;20996;-72
2022/01/07 03:37:27;;;;;;;3.80;3.17;;;;;;;1.14;69.49;99851.41;1762128;81;21461;-72
2022/01/07 03:39:53;;;;;;;5.33;3.72;;;;;;;1.11;69.48;99851.57;1763967;81;21027;-72
2022/01/07 03:42:20;;;;;;;5.72;4.00;;;;;;;1.11;69.51;99848.51;1770756;80;21032;-72
2022/01/07 03:44:46;;;;;;;4.03;3.50;;;;;;;1.10;69.46;99849.89;1772496;79;22363;-72
2022/01/07 03:47:12;;;;;;;5.03;4.20;;;;;;;1.09;69.44;99867.26;1761139;80;21044;-73
2022/01/07 03:49:39;;;;;;;4.70;4.00;;;;;;;1.07;69.44;99865.20;1780089;80;21030;-71
2022/01/07 03:52:06;;;;;;;7.00;4.08;;;;;;;1.05;69.40;99864.86;1744569;80;20961;-72
2022/01/07 03:54:33;;;;;;;3.83;3.00;;;;;;;1.03;69.38;99868.84;1749753;80;21016;-72
2022/01/07 03:57:00;;;;;;;4.95;3.37;;;;;;;1.01;69.37;99875.05;1794136;80;22568;-72
2022/01/07 03:59:27;;;;;;;3.85;3.37;;;;;;;0.98;69.31;99875.20;1775744;80;20948;-72
2022/01/07 04:01:53;;;;;;;4.80;3.10;;;;;;;0.97;69.35;99880.86;1781750;80;21484;-72
2022/01/07 04:04:20;;;;;;;4.65;3.30;;;;;;;0.97;69.26;99879.56;1733905;80;21048;-72
2022/01/07 04:06:46;;;;;;;4.87;3.50;;;;;;;0.97;69.23;99878.26;1792152;80;20940;-72
2022/01/07 04:09:12;;;;;;;5.45;3.47;;;;;;;0.96;69.10;99879.61;1749333;82;21782;-72
2022/01/07 04:11:39;;;;;;;4.00;3.05;;;;;;;0.97;69.11;99883.45;1737687;81;21111;-72
2022/01/07 04:14:05;;;;;;;4.25;2.92;;;;;;;0.98;69.09;99896.00;1731778;82;20967;-73
2022/01/07 04:16:32;;;;;;;5.97;2.85;;;;;;;0.98;69.06;99894.24;1755302;80;21459;-73
2022/01/07 04:18:58;;;;;;;4.35;2.90;;;;;;;1.02;69.04;99904.03;1775940;80;20960;-73
2022/01/07 04:21:24;;;;;;;5.70;2.72;;;;;;;1.03;68.78;99913.52;1742508;81;22200;-73
2022/01/07 04:23:51;;;;;;;4.30;2.85;;;;;;;1.03;68.72;99918.71;1727592;81;21004;-73
2022/01/07 04:26:17;;;;;;;4.53;2.98;;;;;;;1.03;68.56;99913.05;1760455;80;20999;-72
2022/01/07 04:28:43;;;;;;;3.85;2.72;;;;;;;1.05;68.52;99915.11;1740356;81;21466;-73
2022/01/07 04:31:10;;;;;;;3.87;3.00;;;;;;;1.06;68.47;99908.16;1724582;81;20965;-73
2022/01/07 04:33:37;;;;;;;4.28;2.90;;;;;;;1.05;68.27;99920.31;1768619;80;21819;-72
2022/01/07 04:36:04;;;;;;;4.47;2.80;;;;;;;1.04;68.08;99938.59;1781797;80;20994;-72
2022/01/07 04:38:30;;;;;;;4.00;2.87;;;;;;;1.02;67.95;99941.28;1789932;80;21410;-73
2022/01/07 04:40:57;;;;;;;4.10;2.70;;;;;;;1.02;67.88;99938.67;1782630;80;21016;-73
2022/01/07 04:43:23;;;;;;;4.08;2.70;;;;;;;1.00;67.76;99934.02;1773131;80;20992;-72
2022/01/07 04:45:51;;;;;;;4.17;3.00;;;;;;;1.01;67.68;99946.55;1740295;80;22171;-72
2022/01/07 04:48:18;;;;;;;4.42;2.42;;;;;;;0.96;67.64;99949.35;1760246;80;20992;-73
2022/01/07 04:50:44;;;;;;;4.10;2.72;;;;;;;0.93;67.70;99950.80;1765616;80;21077;-72
2022/01/07 04:53:11;;;;;;;5.05;3.40;;;;;;;0.91;67.69;99950.04;1762821;78;21066;-72
2022/01/07 04:55:39;;;;;;;3.47;2.50;;;;;;;0.89;67.64;99962.28;1776504;80;21354;-73
2022/01/07 04:58:11;;;;;;;3.65;2.22;;;;;;;0.88;67.61;99971.45;1789772;80;21743;-73
2022/01/07 05:00:38;;;;;;;3.50;2.40;;;;;;;0.89;67.62;99979.64;1758244;80;21030;-72
2022/01/07 05:03:05;;;;;;;3.52;2.60;;;;;;;0.86;67.61;99978.00;1761129;80;21015;-72
2022/01/07 05:05:32;;;;;;;3.12;2.47;;;;;;;0.83;67.66;99972.95;1756838;81;21440;-72
2022/01/07 05:07:58;;;;;;;3.15;2.20;;;;;;;0.81;67.72;99987.32;1759477;80;21419;-72
2022/01/07 05:10:24;;;;;;;3.55;2.30;;;;;;;0.79;67.78;99987.85;1746817;81;22517;-72
2022/01/07 05:12:51;;;;;;;3.08;2.20;;;;;;;0.77;67.74;99989.69;1745040;80;21399;-72
2022/01/07 05:15:19;;;;;;;3.08;2.00;;;;;;;0.77;67.70;99994.01;1770559;80;21325;-73
2022/01/07 05:17:46;;;;;;;3.40;2.20;;;;;;;0.75;67.59;99990.64;1731632;82;20977;-73
2022/01/07 05:20:14;;;;;;;2.62;2.10;;;;;;;0.73;67.56;99990.72;1746711;80;21537;-72
2022/01/07 05:22:40;;;;;;;4.20;2.12;;;;;;;0.71;67.53;99999.05;1755201;80;22238;-72
2022/01/07 05:25:09;;;;;;;3.30;2.20;;;;;;;0.67;67.54;99994.88;1770493;80;21426;-71
2022/01/07 05:27:36;;;;;;;4.28;2.10;;;;;;;0.64;67.51;99991.13;1747962;80;21053;-72
2022/01/07 05:30:05;;;;;;;2.65;1.70;;;;;;;0.63;67.37;100021.93;1731924;82;21011;-72
2022/01/07 05:32:32;;;;;;;2.90;1.80;;;;;;;0.62;67.26;100007.25;1742074;81;20987;-72
2022/01/07 05:34:58;;;;;;;3.10;2.00;;;;;;;0.64;67.26;100014.98;1759409;81;21793;-72
2022/01/07 05:37:25;;;;;;;3.40;2.27;;;;;;;0.64;67.22;100018.88;1758772;81;21000;-73
2022/01/07 05:39:51;;;;;;;3.37;1.80;;;;;;;0.61;67.17;100029.42;1758769;81;21544;-73
2022/01/07 05:42:17;;;;;;;2.75;1.77;;;;;;;0.57;67.10;100023.03;1759843;81;20962;-72
2022/01/07 05:44:44;;;;;;;2.60;1.75;;;;;;;0.57;67.15;100033.43;1725846;82;21044;-72
2022/01/07 05:47:10;;;;;;;2.62;1.62;;;;;;;0.58;67.17;100039.50;1767785;80;22159;-72
2022/01/07 05:49:37;;;;;;;3.95;1.80;;;;;;;0.55;67.17;100051.30;1761256;81;20932;-72
2022/01/07 05:52:05;;;;;;;3.17;1.87;;;;;;;0.52;67.15;100048.84;1751303;80;21001;-73
2022/01/07 05:54:33;;;;;;;2.67;1.80;;;;;;;0.53;67.14;100053.97;1775258;80;20999;-72
2022/01/07 05:57:00;;;;;;;2.30;1.57;;;;;;;0.53;67.17;100048.78;1766221;81;21638;-72
2022/01/07 05:59:26;;;;;;;2.08;1.60;;;;;;;0.51;67.14;100064.05;1789899;80;22590;-73
2022/01/07 06:01:53;;;;;;;2.85;1.82;;;;;;;0.55;67.18;100070.34;1756439;80;21473;-72
2022/01/07 06:04:19;;;;;;;2.37;1.72;;;;;;;0.55;67.20;100069.04;1784206;80;20999;-72
2022/01/07 06:06:46;;;;;;;7.42;1.70;;;;;;;0.57;67.29;100081.50;1766141;81;21012;-72
2022/01/07 06:09:13;;;;;;;2.70;1.67;;;;;;;0.59;67.36;100087.13;1794035;80;21505;-73
2022/01/07 06:11:39;;;;;;;2.25;1.80;;;;;;;0.57;67.38;100101.00;1779715;79;22778;-72
2022/01/07 06:14:06;;;;;;;2.77;2.02;;;;;;;0.59;67.39;100102.25;1754174;80;20974;-72
2022/01/07 06:16:32;;;;;;;3.47;2.02;;;;;;;0.62;67.31;100114.27;1755705;81;21003;-73
2022/01/07 06:18:58;;;;;;;2.90;2.10;;;;;;;0.62;67.18;100109.07;1748428;81;20944;-72
2022/01/07 06:21:25;;;;;;;4.03;2.10;;;;;;;0.64;67.18;100108.09;1734067;81;21439;-73
2022/01/07 06:23:51;;;;;;;2.98;2.00;;;;;;;0.67;67.06;100119.64;1776125;80;21670;-73
2022/01/07 06:26:18;;;;;;;2.92;1.50;;;;;;;0.69;67.01;100117.00;1785707;80;20948;-73
2022/01/07 06:28:44;;;;;;;3.22;2.02;;;;;;;0.70;66.80;100125.19;1764614;80;20996;-73
2022/01/07 06:31:12;;;;;;;2.75;1.72;;;;;;;0.72;66.84;100108.61;1754609;80;20981;-72
2022/01/07 06:33:38;;;;;;;3.20;1.95;;;;;;;0.76;66.68;100132.70;1764586;80;20981;-74
2022/01/07 06:36:05;;;;;;;2.83;1.90;;;;;;;0.78;66.69;100136.95;1746986;80;22201;-71
2022/01/07 06:38:32;;;;;;;2.85;1.72;;;;;;;0.81;66.62;100139.41;1731335;82;21008;-73
2022/01/07 06:40:58;;;;;;;2.72;1.60;;;;;;;0.84;66.59;100144.92;1759949;80;20953;-72
2022/01/07 06:43:24;;;;;;;2.90;1.90;;;;;;;0.85;66.28;100144.84;1780305;80;20936;-72
2022/01/07 06:45:51;;;;;;;2.45;1.60;;;;;;;0.87;66.29;100148.71;1727842;81;21012;-73
2022/01/07 06:48:18;;;;;;;2.60;1.77;;;;;;;0.86;66.26;100158.23;1770873;80;21810;-73
2022/01/07 06:50:45;;;;;;;2.95;2.00;;;;;;;0.86;66.38;100169.94;1729018;83;20995;-73
2022/01/07 06:53:12;;;;;;;2.67;1.90;;;;;;;0.86;66.38;100163.89;1740307;80;20987;-72
2022/01/07 06:55:38;;;;;;;2.35;1.80;;;;;;;0.88;66.40;100162.55;1758029;80;21445;-72
2022/01/07 06:58:04;;;;;;;3.15;2.20;;;;;;;0.88;66.42;100162.09;1761367;80;20963;-73
2022/01/07 07:00:32;;;;;;;2.60;1.92;;;;;;;0.89;66.55;100174.19;1744774;80;21878;-72
2022/01/07 07:02:58;;;;;;;2.37;1.82;;;;;;;0.89;66.68;100181.98;1763516;80;20964;-72
2022/01/07 07:05:25;;;;;;;2.20;1.60;;;;;;;0.89;66.58;100181.14;1781659;80;21479;-73
2022/01/07 07:07:51;;;;;;;3.12;1.60;;;;;;;0.87;66.55;100191.61;1778872;80;21513;-73
2022/01/07 07:10:19;;;;;;;3.60;1.95;;;;;;;0.84;66.51;100190.42;1743515;80;21499;-73
2022/01/07 07:12:47;;;;;;;4.17;2.58;;;;;;;0.80;66.49;100196.22;1794352;80;22317;-73
2022/01/07 07:15:14;;;;;;;4.15;2.67;;;;;;;0.78;66.52;100200.64;1718401;81;20999;-72
2022/01/07 07:17:44;;;;;;;2.62;1.80;;;;;;;0.81;66.71;100202.26;1764009;80;21488;-73
2022/01/07 07:20:11;;;;;;;2.00;1.60;;;;;;;0.81;66.68;100203.56;1759410;81;20956;-73
2022/01/07 07:22:37;;;;;;;3.08;2.00;;;;;;;0.79;66.71;100209.28;1772005;79;21188;-74
2022/01/07 07:25:05;;;;;;;3.00;2.00;;;;;;;0.80;66.74;100203.17;1770292;79;21824;-73
2022/01/07 07:27:31;;;;;;;3.85;2.40;;;;;;;0.81;66.59;100229.10;1793143;79;20984;-72
2022/01/07 07:29:58;;;;;;;2.70;1.80;;;;;;;0.82;66.52;100222.14;1763411;80;20991;-72
2022/01/07 07:32:27;;;;;;;3.37;1.87;;;;;;;0.82;66.52;100238.59;1777007;78;21002;-72
2022/01/07 07:36:26;;;;;;;3.40;2.40;;;;;;;0.81;66.47;100230.86;1763747;80;21012;-70
2022/01/07 07:37:30;;;;;;;3.42;1.90;;;;;;;0.83;66.36;100235.53;1741236;80;22251;-71
2022/01/07 07:39:57;;;;;;;2.85;1.80;;;;;;;0.84;66.34;100232.86;1778434;80;21003;-72
2022/01/07 07:42:23;;;;;;;3.00;1.70;;;;;;;0.88;66.43;100244.45;1760086;81;21102;-71
2022/01/07 07:44:52;;;;;;;2.90;1.70;;;;;;;0.89;66.23;100246.98;1765443;80;21361;-71
2022/01/07 07:47:18;;;;;;;2.85;1.80;;;;;;;0.91;65.97;100245.16;1773449;80;21025;-71
2022/01/07 07:49:44;;;;;;;2.72;1.60;;;;;;;0.94;66.02;100261.09;1761282;79;22154;-72
2022/01/07 07:52:11;;;;;;;3.75;2.05;;;;;;;0.96;65.85;100265.30;1750296;80;21011;-71
2022/01/07 07:54:37;;;;;;;2.77;1.72;;;;;;;0.99;65.89;100260.00;1765735;80;21517;-72
2022/01/07 07:57:04;;;;;;;3.15;1.95;;;;;;;1.00;65.69;100263.44;1762075;81;21030;-70
2022/01/07 07:59:31;;;;;;;2.22;1.75;;;;;;;1.01;65.55;100269.03;1753470;81;21481;-72
2022/01/07 08:01:58;;;;;;;3.50;2.42;;;;;;;1.02;65.56;100271.56;1741279;80;22421;-70
2022/01/07 08:04:24;;;;;;;4.53;2.15;;;;;;;1.04;65.50;100285.34;1791399;80;21269;-72
2022/01/07 08:06:51;;;;;;;2.58;1.92;;;;;;;1.06;65.47;100281.37;1775609;80;21079;-70
2022/01/07 08:09:19;;;;;;;4.58;2.30;;;;;;;1.09;65.46;100280.81;1785309;80;21522;-73
2022/01/07 08:11:51;;;;;;;2.55;1.72;;;;;;;1.15;65.32;100276.62;1759671;80;21588;-74
2022/01/07 08:17:03;;;;;;;3.47;2.10;;;;;;;1.24;64.97;100287.56;1768192;80;21360;-71
2022/01/07 08:19:29;;;;;;;3.27;2.20;;;;;;;1.31;65.02;100296.80;1754306;81;21503;-71
2022/01/07 08:21:56;;;;;;;3.40;1.98;;;;;;;1.33;64.51;100292.38;1754980;81;21062;-71
2022/01/07 08:24:22;;;;;;;3.67;2.00;;;;;;;1.32;64.22;100288.09;1745405;80;21054;-71
2022/01/07 08:26:48;;;;;;;2.52;1.90;;;;;;;1.35;64.32;100291.42;1755183;80;21796;-72
2022/01/07 08:29:16;;;;;;;4.00;2.42;;;;;;;1.37;64.28;100294.80;1762812;80;21019;-72
2022/01/07 08:36:54;;;;;;;3.62;2.37;;;;;;;1.48;63.98;100304.74;1763564;81;21015;-72
2022/01/07 08:39:21;;;;;;;3.27;2.20;;;;;;;1.55;63.88;100318.35;1768868;80;21820;-71
2022/01/07 08:41:47;;;;;;;3.15;2.08;;;;;;;1.61;63.96;100318.06;1730388;82;21019;-72
2022/01/07 08:44:14;;;;;;;2.60;1.80;;;;;;;1.70;63.64;100327.63;1764259;80;21041;-71
2022/01/07 08:46:59;;;;;;;4.67;2.80;;;;;;;1.77;63.29;100329.52;1777323;80;21078;-71
2022/01/07 08:49:30;;;;;;;5.30;3.10;;;;;;;1.82;62.66;100329.30;1747753;80;21115;-70
2022/01/07 08:51:58;;;;;;;5.22;2.27;;;;;;;1.88;62.41;100336.84;1744749;80;21823;-71
2022/01/07 08:54:26;;;;;;;4.45;3.10;;;;;;;1.91;62.22;100347.12;1747201;80;21024;-73
2022/01/07 08:56:53;;;;;;;2.83;2.08;;;;;;;1.93;62.07;100342.69;1775536;80;21007;-73
2022/01/07 08:59:20;;;;;;;2.87;1.90;;;;;;;1.93;61.94;100354.41;1752927;80;21420;-70
2022/01/07 09:01:46;;;;;;;3.10;1.80;;;;;;;1.93;61.93;100348.77;1763575;80;21012;-71
2022/01/07 09:04:13;;;;;;;2.33;1.65;;;;;;;1.90;62.01;100348.04;1752132;80;21750;-71
2022/01/07 09:06:40;;;;;;;3.10;1.70;;;;;;;1.89;62.04;100348.95;1758531;80;38968;-72
2022/01/07 09:09:07;;;;;;;2.22;1.55;;;;;;;1.95;61.85;100356.51;1752064;80;20951;-72
2022/01/07 09:11:33;;;;;;;3.25;1.90;;;;;;;1.95;61.70;100359.96;1746223;80;21454;-75
2022/01/07 09:14:00;;;;;;;2.50;1.67;;;;;;;1.96;61.57;100361.64;1776598;79;21022;-75
2022/01/07 09:16:27;;;;;;;2.52;1.32;;;;;;;2.03;61.37;100367.87;1766139;80;21787;-75
2022/01/07 09:18:54;;;;;;;1.30;1.00;;;;;;;2.09;59.84;100369.75;1743811;81;20991;-75
2022/01/07 09:21:21;;;;;;;2.12;1.10;;;;;;;2.08;59.63;100377.19;1736641;80;20976;-72
2022/01/07 09:23:48;;;;;;;1.80;1.25;;;;;;;2.07;59.48;100373.34;1761594;80;21546;-70
2022/01/07 09:26:14;;;;;;;1.95;1.35;;;;;;;2.07;59.20;100369.44;1763455;80;20967;-73
2022/01/07 09:28:41;;;;;;;2.33;1.42;;;;;;;2.15;59.78;100368.19;1767452;80;22197;-72
2022/01/07 09:31:08;;;;;;;1.95;1.22;;;;;;;2.30;59.83;100380.52;1772905;80;21379;-69
2022/01/07 09:33:35;;;;;;;2.33;1.30;;;;;;;2.42;58.53;100373.08;1764784;81;20980;-69
2022/01/07 09:36:02;;;;;;;2.25;1.37;;;;;;;2.54;57.50;100385.54;1755680;81;21548;-71
2022/01/07 09:38:33;;;;;;;2.85;1.87;;;;;;;2.61;57.55;100387.41;1755862;80;21000;-68
2022/01/07 09:41:00;;;;;;;2.27;1.40;;;;;;;2.66;57.64;100398.46;1758647;80;22473;-68
2022/01/07 09:43:26;;;;;;;2.35;1.37;;;;;;;2.62;56.89;100398.23;1763995;80;21568;-67
2022/01/07 09:45:53;;;;;;;2.72;1.77;;;;;;;2.56;57.10;100404.56;1762989;81;21046;-69
2022/01/07 09:48:19;;;;;;;3.52;2.12;;;;;;;2.69;57.89;100410.89;1731643;81;21016;-68
2022/01/07 09:50:45;;;;;;;1.70;1.20;;;;;;;2.81;55.70;100423.38;1763523;80;20935;-68
2022/01/07 09:53:13;;;;;;;1.07;0.70;;;;;;;2.85;54.62;100430.14;1772779;80;22497;-69
2022/01/07 09:55:42;;;;;;;0.95;0.62;;;;;;;2.84;52.53;100419.78;1723554;81;21077;-69
2022/01/07 09:58:09;;;;;;;1.30;0.65;;;;;;;2.74;51.32;100420.66;1748648;80;21493;-70
2022/01/07 10:00:41;;;;;;;1.42;0.70;;;;;;;2.49;50.61;100426.14;1791455;79;21057;-70
2022/01/07 10:03:11;;;;;;;0.93;0.53;;;;;;;2.33;50.10;100417.80;1778294;80;20954;-74
2022/01/07 10:05:46;;;;;;;0.82;0.57;;;;;;;2.25;50.33;100426.80;1737970;81;22497;-72
2022/01/07 10:08:25;;;;;;;0.85;0.60;;;;;;;2.25;50.84;100420.28;1781364;80;21048;-73
2022/01/07 10:11:16;;;;;;;1.15;0.80;;;;;;;2.33;49.56;100436.05;1769586;80;21026;-73
2022/01/07 10:13:44;;;;;;;1.52;0.70;;;;;;;2.34;50.33;100428.61;1707742;82;21370;-73
2022/01/07 10:16:19;;;;;;;1.52;0.82;;;;;;;2.38;50.06;100443.19;1751880;81;21067;-74
2022/01/07 10:18:47;;;;;;;1.40;0.75;;;;;;;2.38;49.68;100435.37;1758171;81;21845;-74
2022/01/07 10:21:15;;;;;;;1.60;0.80;;;;;;;2.36;50.11;100446.33;1708037;82;21502;-73
2022/01/07 10:23:45;;;;;;;1.52;0.72;;;;;;;2.30;50.15;100439.16;1747239;80;20980;-73
2022/01/07 10:26:16;;;;;;;1.10;0.68;;;;;;;2.33;49.69;100441.27;1787458;80;20985;-72
2022/01/07 10:28:43;;;;;;;1.87;0.80;;;;;;;2.32;50.00;100447.36;1750144;80;21056;-72
2022/01/07 10:31:10;;;;;;;1.80;1.00;;;;;;;2.33;50.09;100450.37;1788590;80;21802;-70
2022/01/07 10:33:41;;;;;;;1.62;0.85;;;;;;;2.24;49.83;100464.20;1739448;80;21078;-80
2022/01/07 10:36:13;;;;;;;1.52;0.90;;;;;;;2.15;49.86;100471.11;1758638;80;20955;-73
2022/01/07 10:38:54;;;;;;;2.07;1.10;;;;;;;2.05;50.06;100475.02;1771656;80;21488;-74
2022/01/07 10:41:21;;;;;;;1.47;0.80;;;;;;;1.96;50.22;100474.95;1767130;80;21678;-73
2022/01/07 10:43:48;;;;;;;3.02;1.00;;;;;;;1.90;50.52;100478.27;1761956;80;22228;-74
2022/01/07 10:46:19;;;;;;;2.02;1.00;;;;;;;1.84;50.30;100471.58;1762372;80;21399;-73
2022/01/07 10:49:00;;;;;;;3.67;1.55;;;;;;;1.80;50.34;100476.96;1761991;80;20959;-72
2022/01/07 10:51:38;;;;;;;1.95;1.15;;;;;;;1.78;50.24;100476.18;1758184;80;20972;-72
2022/01/07 10:54:10;;;;;;;2.45;1.10;;;;;;;1.78;49.21;100481.39;1694467;82;21024;-72
2022/01/07 10:56:42;;;;;;;5.53;0.90;;;;;;;1.83;46.40;100479.42;1745434;81;21815;-73
2022/01/07 10:59:11;;;;;;;1.70;0.80;;;;;;;1.92;47.30;100485.09;1718005;81;21429;-72
2022/01/07 11:01:54;;;;;;;1.55;0.95;;;;;;;2.09;46.19;100488.30;1748036;81;21009;-73
2022/01/07 11:04:29;;;;;;;1.98;1.00;;;;;;;2.23;46.83;100487.73;1741838;81;21039;-73
2022/01/07 11:07:00;;;;;;;3.45;1.00;;;;;;;2.44;45.08;100486.78;1744191;81;21028;-71
2022/01/07 11:09:27;;;;;;;2.58;0.82;;;;;;;2.61;44.82;100494.33;1748527;80;21852;-69
2022/01/07 11:11:57;;;;;;;1.92;1.10;;;;;;;2.79;43.85;100505.20;1749364;81;20996;-69
2022/01/07 11:14:31;;;;;;;2.05;0.82;;;;;;;2.90;41.93;100500.83;1765386;81;21481;-69
2022/01/07 11:16:59;;;;;;;2.30;1.30;;;;;;;2.82;42.17;100508.55;1766315;80;20980;-69
2022/01/07 11:19:35;;;;;;;1.42;0.65;;;;;;;2.78;41.64;100520.02;1758565;81;21510;-68
2022/01/07 11:22:01;;;;;;;1.60;0.70;;;;;;;2.85;41.60;100518.83;1752007;81;21790;-71
2022/01/07 11:24:36;;;;;;;1.52;0.60;;;;;;;3.01;41.31;100524.67;1745156;80;20965;-72
2022/01/07 11:27:12;;;;;;;1.57;0.70;;;;;;;3.05;39.62;100513.16;1760100;81;21517;-70
2022/01/07 11:29:55;;;;;;;1.30;0.80;;;;;;;3.01;40.08;100512.47;1731382;82;21036;-75
2022/01/07 11:32:48;;;;;;;4.30;0.85;;;;;;;2.87;41.11;100522.20;1725704;80;21094;-70
2022/01/07 11:35:23;;;;;;;;;;;;;;;2.87;42.01;100518.75;1737160;80;21843;-73
2022/01/07 11:37:57;;;;;;;;;;;;;;;2.93;42.68;100522.41;1752960;80;20128;-73
2022/01/07 11:40:41;;;;;;;2.00;0.80;;;;;;;2.94;42.59;100531.08;1743446;80;20163;-74
2022/01/07 11:43:23;;;;;;;1.55;0.80;;;;;;;2.81;41.41;100529.48;1752036;80;21258;-70
2022/01/07 11:45:50;;;;;;;2.65;0.93;;;;;;;2.60;42.34;100542.99;1738742;81;20960;-70
2022/01/07 11:48:25;;;;;;;2.05;1.00;;;;;;;2.59;42.32;100546.06;1740630;80;22159;-70